createdAt,value
2018-09-15T00:01:29.481Z,101690.00
2018-09-15T00:03:59.248Z,101684.59
2018-09-15T00:06:30.429Z,101684.06
2018-09-15T00:08:59.945Z,101687.59
2018-09-15T00:11:29.261Z,101688.23
2018-09-15T00:13:59.018Z,101688.73
2018-09-15T00:16:29.804Z,101690.66
2018-09-15T00:18:59.361Z,101689.66
2018-09-15T00:21:28.745Z,101690.14
2018-09-15T00:23:58.167Z,101684.05
2018-09-15T00:26:28.981Z,101684.37
2018-09-15T00:29:01.010Z,101689.39
2018-09-15T00:31:30.610Z,101623.99
2018-09-15T00:34:02.648Z,101690.34
2018-09-15T00:36:33.106Z,101685.92
2018-09-15T00:39:03.129Z,101687.87
2018-09-15T00:41:32.477Z,101696.28
2018-09-15T00:44:01.934Z,101692.74
2018-09-15T00:46:31.917Z,101700.97
2018-09-15T00:49:01.905Z,101698.77
2018-09-15T00:51:31.294Z,101700.07
2018-09-15T00:54:01.122Z,101703.38
2018-09-15T00:56:30.447Z,101702.51
2018-09-15T00:59:00.379Z,101703.50
2018-09-15T01:01:33.103Z,101703.15
2018-09-15T01:04:04.015Z,101700.81
2018-09-15T01:06:37.558Z,101702.95
2018-09-15T01:09:09.163Z,101705.41
2018-09-15T01:11:40.599Z,101700.73
2018-09-15T01:14:09.993Z,101702.09
2018-09-15T01:16:39.934Z,101697.71
2018-09-15T01:19:09.724Z,101700.41
2018-09-15T01:21:39.149Z,101704.79
2018-09-15T01:24:09.164Z,101699.41
2018-09-15T01:26:38.660Z,101701.22
2018-09-15T01:29:08.275Z,101705.17
2018-09-15T01:31:41.719Z,101700.25
2018-09-15T01:34:11.446Z,101706.83
2018-09-15T01:36:40.854Z,101710.95
2018-09-15T01:39:11.828Z,101710.14
2018-09-15T01:41:41.404Z,101707.59
2018-09-15T01:44:11.340Z,101704.66
2018-09-15T01:46:41.704Z,101707.09
2018-09-15T01:49:11.051Z,101708.20
2018-09-15T01:51:41.332Z,101702.00
2018-09-15T01:54:12.170Z,101701.83
2018-09-15T01:56:41.855Z,101708.36
2018-09-15T01:59:12.035Z,101702.01
2018-09-15T02:01:41.773Z,101698.78
2018-09-15T02:04:11.251Z,101697.42
2018-09-15T02:09:22.730Z,101689.59
2018-09-15T02:11:52.869Z,101688.83
2018-09-15T02:14:22.436Z,101688.45
2018-09-15T02:16:52.489Z,101688.81
2018-09-15T02:19:22.517Z,101690.95
2018-09-15T02:21:52.279Z,101692.44
2018-09-15T02:24:21.573Z,101688.15
2018-09-15T02:26:51.608Z,101690.61
2018-09-15T02:29:23.083Z,101694.33
2018-09-15T02:31:53.184Z,101695.98
2018-09-15T02:34:25.681Z,101693.38
2018-09-15T02:36:56.709Z,101696.61
2018-09-15T02:39:29.753Z,101696.34
2018-09-15T02:41:59.518Z,101697.83
2018-09-15T02:44:29.642Z,101702.48
2018-09-15T02:47:00.232Z,101706.95
2018-09-15T02:49:30.502Z,101708.97
2018-09-15T02:52:03.013Z,101710.84
2018-09-15T02:54:36.308Z,101713.80
2018-09-15T02:57:06.875Z,101710.97
2018-09-15T02:59:36.268Z,101706.18
2018-09-15T03:02:06.657Z,101716.25
2018-09-15T03:04:37.008Z,101713.03
2018-09-15T03:07:06.456Z,101712.22
2018-09-15T03:09:35.884Z,101714.68
2018-09-15T03:12:06.141Z,101713.86
2018-09-15T03:14:39.664Z,101711.45
2018-09-15T03:17:09.258Z,101708.48
2018-09-15T03:19:39.645Z,101712.16
2018-09-15T03:22:09.873Z,101714.36
2018-09-15T03:24:43.392Z,101714.68
2018-09-15T03:27:15.349Z,101716.83
2018-09-15T03:29:45.330Z,101709.72
2018-09-15T03:32:16.272Z,101711.91
2018-09-15T03:34:47.367Z,101717.28
2018-09-15T03:37:18.377Z,101720.47
2018-09-15T03:39:50.201Z,101715.08
2018-09-15T03:42:19.746Z,101716.24
2018-09-15T03:44:51.732Z,101713.02
2018-09-15T03:47:22.257Z,101711.67
2018-09-15T03:49:56.816Z,101712.00
2018-09-15T03:52:26.970Z,101717.92
2018-09-15T03:54:57.603Z,101719.92
2018-09-15T03:57:28.982Z,101726.99
2018-09-15T04:00:00.117Z,101726.80
2018-09-15T04:02:30.607Z,101728.77
2018-09-15T04:05:03.267Z,101726.94
2018-09-15T04:07:32.908Z,101732.22
2018-09-15T04:10:03.382Z,101727.94
2018-09-15T04:12:38.217Z,101728.23
2018-09-15T04:15:09.982Z,101731.38
2018-09-15T04:17:44.126Z,101742.22
2018-09-15T04:20:13.895Z,101744.11
2018-09-15T04:22:48.271Z,101744.37
2018-09-15T04:25:17.791Z,101740.63
2018-09-15T04:27:48.485Z,101745.61
2018-09-15T04:30:18.320Z,101740.69
2018-09-15T04:32:48.611Z,101738.44
2018-09-15T04:35:20.502Z,101748.48
2018-09-15T04:37:50.545Z,101748.45
2018-09-15T04:40:20.517Z,101756.51
2018-09-15T04:42:57.113Z,101718.17
2018-09-15T04:45:27.683Z,101754.81
2018-09-15T04:47:58.016Z,101755.48
2018-09-15T04:50:27.357Z,101750.20
2018-09-15T04:53:00.897Z,101749.53
2018-09-15T04:55:31.272Z,101751.94
2018-09-15T04:58:02.160Z,101761.58
2018-09-15T05:00:33.356Z,101755.62
2018-09-15T05:03:04.693Z,101760.15
2018-09-15T05:05:36.946Z,101763.23
2018-09-15T05:08:07.399Z,101764.36
2018-09-15T05:10:37.827Z,101765.92
2018-09-15T05:13:07.645Z,101773.94
2018-09-15T05:15:38.375Z,101774.03
2018-09-15T05:18:08.041Z,101775.20
2018-09-15T05:20:38.418Z,101778.30
2018-09-15T05:23:08.057Z,101775.38
2018-09-15T05:25:37.608Z,101773.28
2018-09-15T05:28:07.330Z,101779.91
2018-09-15T05:30:37.036Z,101775.11
2018-09-15T05:33:07.437Z,101773.86
2018-09-15T05:35:36.737Z,101781.37
2018-09-15T05:38:06.176Z,101780.20
2018-09-15T05:40:37.694Z,101780.90
2018-09-15T05:43:08.053Z,101785.38
2018-09-15T05:45:37.840Z,101782.61
2018-09-15T05:48:07.603Z,101725.03
2018-09-15T05:50:37.448Z,101796.05
2018-09-15T05:53:07.904Z,101796.96
2018-09-15T05:55:37.353Z,101794.78
2018-09-15T05:58:06.731Z,101803.37
2018-09-15T06:00:36.271Z,101804.56
2018-09-15T06:03:05.682Z,101813.08
2018-09-15T06:05:35.350Z,101817.94
2018-09-15T06:08:05.676Z,101818.55
2018-09-15T06:10:35.108Z,101816.41
2018-09-15T06:13:04.822Z,101820.95
2018-09-15T06:15:34.744Z,101822.02
2018-09-15T06:18:05.404Z,101835.05
2018-09-15T06:20:35.202Z,101831.58
2018-09-15T06:23:04.654Z,101837.52
2018-09-15T06:25:35.519Z,101836.66
2018-09-15T06:28:04.848Z,101841.14
2018-09-15T06:30:45.497Z,101846.64
2018-09-15T06:33:15.324Z,101846.70
2018-09-15T06:35:47.040Z,101853.83
2018-09-15T06:38:18.746Z,101856.02
2018-09-15T06:40:50.661Z,101853.45
2018-09-15T06:43:20.481Z,101854.23
2018-09-15T06:45:50.789Z,101860.09
2018-09-15T06:48:20.125Z,101840.98
2018-09-15T06:50:49.674Z,101850.34
2018-09-15T06:53:22.433Z,101859.01
2018-09-15T06:55:52.123Z,101853.34
2018-09-15T07:01:04.481Z,101854.64
2018-09-15T07:03:35.604Z,101860.75
2018-09-15T07:06:07.665Z,101869.39
2018-09-15T07:08:37.074Z,101871.55
2018-09-15T07:11:07.358Z,101880.54
2018-09-15T07:13:37.219Z,101886.18
2018-09-15T07:16:07.014Z,101893.28
2018-09-15T07:18:37.794Z,101893.35
2018-09-15T07:21:08.043Z,101900.64
2018-09-15T07:23:38.372Z,101905.11
2018-09-15T07:26:08.578Z,101912.96
2018-09-15T07:28:38.949Z,101900.63
2018-09-15T07:31:09.859Z,101898.81
2018-09-15T07:33:40.525Z,101900.73
2018-09-15T07:36:10.752Z,101908.26
2018-09-15T07:38:42.590Z,101907.41
2018-09-15T07:41:14.816Z,101907.52
2018-09-15T07:43:49.197Z,101905.30
2018-09-15T07:46:21.320Z,101912.47
2018-09-15T07:48:54.484Z,101918.53
2018-09-15T07:51:33.482Z,101920.44
2018-09-15T07:54:03.784Z,101922.09
2018-09-15T07:56:35.527Z,101847.20
2018-09-15T07:59:05.566Z,101925.39
2018-09-15T08:01:36.895Z,101926.66
2018-09-15T08:04:07.895Z,101927.20
2018-09-15T08:06:38.944Z,101925.41
2018-09-15T08:09:13.349Z,101934.53
2018-09-15T08:11:43.270Z,101930.61
2018-09-15T08:14:13.787Z,101930.61
2018-09-15T08:16:44.441Z,101926.97
2018-09-15T08:19:23.262Z,101923.46
2018-09-15T08:21:54.126Z,101923.43
2018-09-15T08:24:28.470Z,101929.73
2018-09-15T08:26:59.466Z,101923.48
2018-09-15T08:29:29.862Z,101931.28
2018-09-15T08:32:04.119Z,101937.39
2018-09-15T08:34:33.574Z,101942.64
2018-09-15T08:37:03.916Z,101947.69
2018-09-15T08:39:35.448Z,101941.58
2018-09-15T08:42:06.859Z,101942.05
2018-09-15T08:44:36.399Z,101950.24
2018-09-15T08:47:07.719Z,101951.58
2018-09-15T08:49:40.138Z,101945.66
2018-09-15T08:52:10.202Z,101947.01
2018-09-15T08:54:41.287Z,101953.08
2018-09-15T08:57:12.598Z,101955.21
2018-09-15T08:59:51.041Z,101950.14
2018-09-15T09:02:21.539Z,101959.11
2018-09-15T09:04:55.311Z,101958.56
2018-09-15T09:07:25.852Z,101953.66
2018-09-15T09:09:58.173Z,101953.23
2018-09-15T09:12:27.807Z,101955.98
2018-09-15T09:14:57.637Z,101956.03
2018-09-15T09:17:28.683Z,101956.33
2018-09-15T09:19:58.280Z,101956.30
2018-09-15T09:22:28.361Z,101961.25
2018-09-15T09:25:14.027Z,101957.64
2018-09-15T09:27:46.214Z,101957.55
2018-09-15T09:30:18.265Z,101960.65
2018-09-15T09:32:48.006Z,101967.84
2018-09-15T09:35:18.397Z,101961.12
2018-09-15T09:37:49.005Z,101965.59
2018-09-15T09:40:19.951Z,101967.50
2018-09-15T09:42:57.362Z,101968.58
2018-09-15T09:45:28.245Z,101970.22
2018-09-15T09:47:58.925Z,101925.97
2018-09-15T09:50:29.618Z,101960.16
2018-09-15T09:53:00.165Z,101963.91
2018-09-15T09:55:33.885Z,101974.27
2018-09-15T09:58:04.729Z,101968.71
2018-09-15T10:00:40.706Z,101966.42
2018-09-15T10:03:13.839Z,101969.92
2018-09-15T10:05:44.438Z,101964.61
2018-09-15T10:08:14.433Z,101975.14
2018-09-15T10:10:45.355Z,101959.59
2018-09-15T10:13:15.225Z,101965.56
2018-09-15T10:15:46.996Z,101964.58
2018-09-15T10:18:19.942Z,101972.80
2018-09-15T10:20:51.908Z,101984.20
2018-09-15T10:23:22.594Z,101981.95
2018-09-15T10:25:53.967Z,101980.53
2018-09-15T10:28:27.245Z,101973.05
2018-09-15T10:31:14.019Z,101971.15
2018-09-15T10:33:52.040Z,101964.01
2018-09-15T10:36:24.086Z,101961.84
2018-09-15T10:39:04.393Z,101978.28
2018-09-15T10:41:38.524Z,101980.02
2018-09-15T10:44:09.729Z,101974.97
2018-09-15T10:46:40.824Z,101972.75
2018-09-15T10:49:10.675Z,101975.22
2018-09-15T10:51:41.961Z,101978.27
2018-09-15T10:54:11.405Z,101978.77
2018-09-15T10:56:41.913Z,101964.00
2018-09-15T10:59:11.695Z,101969.62
2018-09-15T11:01:44.365Z,101960.63
2018-09-15T11:04:18.532Z,101960.30
2018-09-15T11:09:32.140Z,101962.54
2018-09-15T11:12:12.000Z,101961.80
2018-09-15T11:14:44.016Z,101965.69
2018-09-15T11:17:19.423Z,101956.00
2018-09-15T11:19:50.932Z,101958.92
2018-09-15T11:22:25.321Z,101952.91
2018-09-15T11:24:55.524Z,101958.81
2018-09-15T11:27:30.430Z,101966.41
2018-09-15T11:30:00.873Z,101962.61
2018-09-15T11:32:31.429Z,101960.62
2018-09-15T11:35:02.202Z,101951.36
2018-09-15T11:37:34.905Z,101946.54
2018-09-15T11:40:07.580Z,101947.45
2018-09-15T11:42:38.650Z,101945.51
2018-09-15T11:45:09.551Z,101951.30
2018-09-15T11:47:44.217Z,101908.52
2018-09-15T11:50:21.993Z,101950.91
2018-09-15T11:52:54.248Z,101949.39
2018-09-15T11:55:23.813Z,101951.73
2018-09-15T11:57:54.067Z,101963.84
2018-09-15T12:00:29.010Z,101964.05
2018-09-15T12:03:00.585Z,101968.52
2018-09-15T12:05:30.505Z,101956.34
2018-09-15T12:08:00.295Z,101964.23
2018-09-15T12:10:30.514Z,101955.03
2018-09-15T12:13:00.437Z,101960.50
2018-09-15T12:15:31.879Z,101960.30
2018-09-15T12:18:08.167Z,101964.63
2018-09-15T12:20:41.691Z,101960.03
2018-09-15T12:23:16.417Z,101964.28
2018-09-15T12:25:48.150Z,101960.92
2018-09-15T12:28:23.495Z,101962.48
2018-09-15T12:30:56.131Z,101964.41
2018-09-15T12:33:27.337Z,101959.37
2018-09-15T12:35:59.104Z,101972.66
2018-09-15T12:38:28.814Z,101961.47
2018-09-15T12:40:58.853Z,101964.39
2018-09-15T12:43:29.447Z,101962.17
2018-09-15T12:46:01.578Z,101957.17
2018-09-15T12:48:33.168Z,101956.69
2018-09-15T12:51:03.187Z,101960.27
2018-09-15T12:53:35.355Z,101962.72
2018-09-15T12:56:05.067Z,101967.89
2018-09-15T12:58:36.221Z,101923.74
2018-09-15T13:01:06.657Z,101960.22
2018-09-15T13:03:38.320Z,101963.45
2018-09-15T13:06:09.501Z,101963.64
2018-09-15T13:08:41.221Z,101963.20
2018-09-15T13:11:11.765Z,101958.82
2018-09-15T13:13:43.354Z,101963.50
2018-09-15T13:16:20.507Z,101955.98
2018-09-15T13:18:52.924Z,101951.26
2018-09-15T13:21:23.410Z,101954.00
2018-09-15T13:23:58.949Z,101948.73
2018-09-15T13:26:28.797Z,101959.34
2018-09-15T13:29:01.513Z,101954.83
2018-09-15T13:31:34.691Z,101958.22
2018-09-15T13:34:05.566Z,101952.60
2018-09-15T13:36:35.863Z,101953.52
2018-09-15T13:39:07.961Z,101945.56
2018-09-15T13:41:38.859Z,101941.87
2018-09-15T13:44:08.556Z,101942.57
2018-09-15T13:46:41.664Z,101874.30
2018-09-15T13:49:12.086Z,101946.98
2018-09-15T13:51:44.627Z,101955.67
2018-09-15T13:54:15.473Z,101948.87
2018-09-15T13:56:45.922Z,101950.38
2018-09-15T13:59:15.480Z,101957.42
2018-09-15T14:01:48.029Z,101955.80
2018-09-15T14:04:18.313Z,101957.94
2018-09-15T14:06:50.581Z,101954.76
2018-09-15T14:09:21.543Z,101964.44
2018-09-15T14:11:53.497Z,101959.16
2018-09-15T14:14:24.389Z,101961.48
2018-09-15T14:16:55.968Z,101963.42
2018-09-15T14:19:27.303Z,101957.59
2018-09-15T14:21:58.205Z,101956.23
2018-09-15T14:24:29.013Z,101970.27
2018-09-15T14:27:01.715Z,101970.00
2018-09-15T14:29:35.121Z,101968.13
2018-09-15T14:32:09.414Z,101968.28
2018-09-15T14:34:40.294Z,101960.52
2018-09-15T14:37:09.789Z,101962.61
2018-09-15T14:39:43.747Z,101955.57
2018-09-15T14:42:13.207Z,101951.72
2018-09-15T14:44:43.184Z,101957.50
2018-09-15T14:47:14.300Z,101955.20
2018-09-15T14:49:45.182Z,101956.77
2018-09-15T14:52:16.332Z,101955.50
2018-09-15T14:54:48.121Z,101958.30
2018-09-15T14:57:23.452Z,101961.17
2018-09-15T14:59:54.985Z,101956.84
2018-09-15T15:02:27.649Z,101955.86
2018-09-15T15:04:59.481Z,101954.11
2018-09-15T15:07:35.239Z,101961.12
2018-09-15T15:10:08.063Z,101969.47
2018-09-15T15:12:38.729Z,101956.63
2018-09-15T15:15:08.995Z,101953.20
2018-09-15T15:17:44.701Z,101956.39
2018-09-15T15:20:17.342Z,101958.69
2018-09-15T15:22:48.098Z,101955.84
2018-09-15T15:25:20.462Z,101954.66
2018-09-15T15:27:50.333Z,101955.44
2018-09-15T15:30:21.827Z,101952.36
2018-09-15T15:32:51.383Z,101949.41
2018-09-15T15:35:22.502Z,101956.62
2018-09-15T15:38:07.733Z,101950.16
2018-09-15T15:40:45.791Z,101948.64
2018-09-15T15:43:16.424Z,101950.94
2018-09-15T15:45:59.453Z,101953.91
2018-09-15T15:48:32.027Z,101956.20
2018-09-15T15:51:10.672Z,101959.19
2018-09-15T15:53:42.211Z,101955.30
2018-09-15T15:56:13.898Z,101961.45
2018-09-15T15:58:45.017Z,101951.30
2018-09-15T16:01:19.682Z,101954.81
2018-09-15T16:03:55.075Z,101954.34
2018-09-15T16:06:26.224Z,101956.98
2018-09-15T16:08:55.706Z,101957.95
2018-09-15T16:11:26.813Z,101956.09
2018-09-15T16:14:02.057Z,101949.81
2018-09-15T16:16:32.138Z,101951.85
2018-09-15T16:19:11.238Z,101946.55
2018-09-15T16:21:45.066Z,101959.05
2018-09-15T16:24:17.257Z,101956.16
2018-09-15T16:26:53.862Z,101958.08
2018-09-15T16:32:03.561Z,101954.66
2018-09-15T16:34:39.708Z,101952.47
2018-09-15T16:40:17.696Z,101956.41
2018-09-15T16:42:51.773Z,101952.69
2018-09-15T16:45:23.641Z,101951.33
2018-09-15T16:47:57.398Z,101952.97
2018-09-15T16:50:28.265Z,101953.81
2018-09-15T16:53:02.400Z,101951.19
2018-09-15T16:55:34.766Z,101954.00
2018-09-15T16:58:12.341Z,101952.56
2018-09-15T17:00:42.382Z,101947.22
2018-09-15T17:03:12.163Z,101943.73
2018-09-15T17:05:48.111Z,101952.59
2018-09-15T17:08:18.657Z,101944.11
2018-09-15T17:10:59.093Z,101950.05
2018-09-15T17:13:29.508Z,101953.11
2018-09-15T17:16:01.606Z,101950.14
2018-09-15T17:18:35.576Z,101955.37
2018-09-15T17:21:10.787Z,101954.38
2018-09-15T17:23:43.594Z,101957.39
2018-09-15T17:26:14.166Z,101953.62
2018-09-15T17:28:53.515Z,101951.30
2018-09-15T17:31:24.311Z,101953.54
2018-09-15T17:33:59.351Z,101957.30
2018-09-15T17:36:36.112Z,101958.02
2018-09-15T17:39:08.937Z,101964.30
2018-09-15T17:44:29.178Z,101967.38
2018-09-15T17:46:59.228Z,101974.50
2018-09-15T17:49:33.824Z,101969.58
2018-09-15T17:52:10.553Z,101970.26
2018-09-15T17:54:44.258Z,101978.05
2018-09-15T17:57:18.957Z,101972.16
2018-09-15T17:59:59.964Z,101982.02
2018-09-15T18:02:32.106Z,101983.91
2018-09-15T18:05:14.039Z,101983.60
2018-09-15T18:07:52.523Z,101972.62
2018-09-15T18:10:26.185Z,101977.90
2018-09-15T18:13:25.870Z,101981.43
2018-09-15T18:16:00.738Z,101983.63
2018-09-15T18:18:38.075Z,101983.46
2018-09-15T18:21:11.803Z,101987.89
2018-09-15T18:23:43.567Z,101994.33
2018-09-15T18:26:13.153Z,101998.59
2018-09-15T18:28:44.748Z,101994.44
2018-09-15T18:31:14.341Z,102005.69
2018-09-15T18:33:45.918Z,102001.81
2018-09-15T18:36:16.809Z,101999.97
2018-09-15T18:38:51.210Z,101999.95
2018-09-15T18:41:25.219Z,101999.59
2018-09-15T18:43:56.543Z,101999.44
2018-09-15T18:46:28.579Z,102005.17
2018-09-15T18:52:03.055Z,102009.05
2018-09-15T18:54:36.406Z,102011.06
2018-09-15T18:57:07.871Z,102012.76
2018-09-15T18:59:47.239Z,102015.46
2018-09-15T19:02:19.946Z,102018.16
2018-09-15T19:04:50.650Z,102014.95
2018-09-15T19:07:21.111Z,102021.52
2018-09-15T19:09:51.609Z,102023.53
2018-09-15T19:12:31.625Z,102020.63
2018-09-15T19:15:15.836Z,102025.29
2018-09-15T19:17:47.928Z,102025.78
2018-09-15T19:20:19.323Z,102026.22
2018-09-15T19:22:49.435Z,102027.57
2018-09-15T19:25:21.277Z,102023.06
2018-09-15T19:27:54.932Z,102028.74
2018-09-15T19:30:31.276Z,102038.03
2018-09-15T19:33:11.670Z,102039.30
2018-09-15T19:38:21.867Z,102044.04
2018-09-15T19:40:51.533Z,102040.86
2018-09-15T19:49:27.082Z,102050.91
2018-09-15T19:51:58.125Z,102055.23
2018-09-15T19:54:30.032Z,102056.16
2018-09-15T19:57:08.417Z,102052.91
2018-09-15T19:59:39.815Z,102051.23
2018-09-15T20:02:16.836Z,102057.95
2018-09-15T20:04:49.674Z,102052.73
2018-09-15T20:07:20.541Z,102056.28
2018-09-15T20:09:53.273Z,102053.32
2018-09-15T20:12:24.363Z,102049.80
2018-09-15T20:14:57.300Z,102051.36
2018-09-15T20:17:31.480Z,102055.25
2018-09-15T20:20:00.335Z,102049.22
2018-09-15T20:22:33.679Z,102052.18
2018-09-15T20:25:08.376Z,102050.34
2018-09-15T20:27:40.101Z,102046.08
2018-09-15T20:32:49.761Z,102051.99
2018-09-15T20:35:19.868Z,102052.75
2018-09-15T20:37:50.285Z,102053.45
2018-09-15T20:40:22.697Z,102054.94
2018-09-15T20:42:54.320Z,102054.83
2018-09-15T20:45:24.695Z,102055.55
2018-09-15T20:47:57.948Z,102053.78
2018-09-15T20:50:27.590Z,102053.70
2018-09-15T20:52:57.768Z,102049.16
2018-09-15T20:55:31.570Z,102052.64
2018-09-15T20:58:05.890Z,102044.84
2018-09-15T21:00:40.639Z,102044.98
2018-09-15T21:03:11.187Z,102045.30
2018-09-15T21:05:42.325Z,102043.55
2018-09-15T21:08:18.563Z,102055.20
2018-09-15T21:10:49.660Z,102049.50
2018-09-15T21:13:20.639Z,102051.63
2018-09-15T21:16:04.243Z,102049.34
2018-09-15T21:18:35.743Z,102010.08
2018-09-15T21:21:11.929Z,102048.72
2018-09-15T21:23:45.942Z,102053.75
2018-09-15T21:26:17.315Z,102060.20
2018-09-15T21:28:48.270Z,102056.17
2018-09-15T21:31:21.783Z,102047.81
2018-09-15T21:33:51.298Z,102056.25
2018-09-15T21:36:20.904Z,102050.20
2018-09-15T21:38:50.380Z,102057.20
2018-09-15T21:41:20.573Z,102057.95
2018-09-15T21:43:51.128Z,102061.55
2018-09-15T21:46:22.453Z,102053.96
2018-09-15T21:48:53.001Z,102050.47
2018-09-15T21:51:25.517Z,102052.85
2018-09-15T21:53:55.000Z,102059.40
2018-09-15T21:56:24.634Z,102060.87
2018-09-15T21:58:56.124Z,102062.80
2018-09-15T22:01:25.845Z,102065.13
2018-09-15T22:04:01.710Z,102064.64
2018-09-15T22:06:34.611Z,102064.06
2018-09-15T22:09:06.270Z,102062.25
2018-09-15T22:11:36.018Z,102061.48
2018-09-15T22:14:06.697Z,102065.08
2018-09-15T22:16:37.257Z,102064.62
2018-09-15T22:19:07.587Z,102062.69
2018-09-15T22:21:38.477Z,102063.27
2018-09-15T22:24:11.703Z,102067.59
2018-09-15T22:26:47.470Z,102066.63
2018-09-15T22:29:20.666Z,102059.11
2018-09-15T22:31:52.803Z,102059.03
2018-09-15T22:34:27.537Z,102062.16
2018-09-15T22:36:58.164Z,102058.33
2018-09-15T22:39:33.625Z,102056.15
2018-09-15T22:42:03.623Z,102054.17
2018-09-15T22:44:33.370Z,102055.66
2018-09-15T22:47:03.584Z,102055.84
2018-09-15T22:49:36.651Z,102052.19
2018-09-15T22:52:06.128Z,102054.45
2018-09-15T22:54:40.397Z,102046.25
2018-09-15T22:57:11.939Z,102054.58
2018-09-15T22:59:51.312Z,102051.99
2018-09-15T23:02:22.863Z,102052.19
2018-09-15T23:04:55.688Z,102054.46
2018-09-15T23:07:28.870Z,102048.73
2018-09-15T23:09:58.895Z,102044.76
2018-09-15T23:12:30.595Z,102045.38
2018-09-15T23:15:04.623Z,102045.97
2018-09-15T23:17:35.960Z,102055.08
2018-09-15T23:20:06.777Z,102054.23
2018-09-15T23:22:38.647Z,102055.38
2018-09-15T23:25:08.438Z,102056.36
2018-09-15T23:27:37.964Z,102056.00
2018-09-15T23:30:08.446Z,102058.27
2018-09-15T23:32:41.425Z,102056.55
2018-09-15T23:35:12.606Z,102012.98
2018-09-15T23:37:42.140Z,102061.30
2018-09-15T23:40:15.090Z,102055.56
2018-09-15T23:42:46.308Z,102052.89
2018-09-15T23:45:18.579Z,102050.00
2018-09-15T23:47:49.278Z,102052.89
2018-09-15T23:50:19.669Z,102043.55
2018-09-15T23:52:50.002Z,102041.78
2018-09-15T23:55:25.262Z,102042.27
2018-09-15T23:57:55.424Z,102042.00
